Time;durP1;ratioP1;P1;durP2;ratioP2;P2;SDS_P1;SDS_P2;PMS_P1;PMS_P2;Temp;Humidity;BMP_temperature;BMP_pressure;BME280_temperature;BME280_humidity;BME280_pressure;Samples;Min_cycle;Max_cycle;Signal;HPM_P1;HPM_P2
2022/05/06 00:03:03;;;;;;;0.65;0.50;;;17.70;45.30;19.90;94298.00;;;;10439348;28;45219;-62
2022/05/06 00:08:25;;;;;;;0.80;0.50;;;17.70;45.30;19.90;94305.00;;;;10440041;28;45664;-64
2022/05/06 00:13:45;;;;;;;0.65;0.43;;;17.70;45.30;19.90;94291.00;;;;10439972;28;45157;-62
2022/05/06 00:19:07;;;;;;;0.40;0.40;;;17.70;45.40;19.90;94285.00;;;;10439451;28;45110;-63
2022/05/06 00:24:28;;;;;;;0.95;0.70;;;17.70;45.40;19.90;94285.00;;;;10439875;28;45774;-62
2022/05/06 00:29:49;;;;;;;0.40;0.40;;;17.70;45.40;19.80;94288.00;;;;10438640;28;45276;-63
2022/05/06 00:35:11;;;;;;;0.47;0.45;;;17.60;45.30;19.80;94285.00;;;;10439443;28;45250;-64
2022/05/06 00:40:32;;;;;;;0.38;0.35;;;17.70;45.40;19.80;94292.00;;;;10439270;28;45676;-62
2022/05/06 00:45:54;;;;;;;0.40;0.40;;;17.60;45.40;19.80;94282.00;;;;10438748;28;45676;-62
2022/05/06 00:51:18;;;;;;;0.40;0.30;;;17.60;45.40;19.80;94274.00;;;;10438516;28;45152;-63
2022/05/06 00:56:39;;;;;;;0.32;0.30;;;17.60;45.40;19.80;94281.00;;;;10438130;28;45926;-63
2022/05/06 01:02:00;;;;;;;0.82;0.30;;;17.60;45.40;19.80;94279.00;;;;10433017;28;45681;-63
2022/05/06 01:07:23;;;;;;;0.35;0.35;;;17.60;45.40;19.80;94277.00;;;;10436472;28;45157;-62
2022/05/06 01:12:44;;;;;;;0.40;0.40;;;17.60;45.40;19.70;94267.00;;;;10437807;28;45159;-62
2022/05/06 01:18:04;;;;;;;0.30;0.30;;;17.60;45.50;19.70;94268.00;;;;10438175;28;45161;-62
2022/05/06 01:23:26;;;;;;;0.30;0.30;;;17.60;45.40;19.70;94255.00;;;;10437434;28;45290;-63
2022/05/06 01:28:48;;;;;;;0.65;0.40;;;17.60;45.50;19.70;94245.00;;;;10437101;28;45128;-62
2022/05/06 01:34:12;;;;;;;1.67;0.50;;;17.60;45.50;19.70;94245.00;;;;10437110;28;45205;-63
2022/05/06 01:39:37;;;;;;;0.73;0.30;;;17.60;45.50;19.70;94251.00;;;;10436395;28;45203;-63
2022/05/06 01:44:58;;;;;;;0.30;0.22;;;17.60;45.40;19.70;94247.00;;;;10437276;28;45234;-63
2022/05/06 01:50:21;;;;;;;0.45;0.38;;;17.60;45.50;19.70;94244.00;;;;10436534;28;45192;-62
2022/05/06 01:55:43;;;;;;;0.50;0.40;;;17.60;45.50;19.70;94255.00;;;;10436381;28;45204;-62
2022/05/06 02:01:04;;;;;;;0.38;0.30;;;17.50;45.50;19.70;94239.00;;;;10436908;28;45099;-63
2022/05/06 02:06:25;;;;;;;0.40;0.40;;;17.50;45.50;19.70;94256.00;;;;10436384;28;45288;-63
2022/05/06 02:11:47;;;;;;;0.40;0.30;;;17.50;45.50;19.70;94248.00;;;;10435977;28;45849;-62
2022/05/06 02:17:08;;;;;;;0.30;0.30;;;17.50;45.50;19.60;94246.00;;;;10435840;28;45190;-63
2022/05/06 02:22:29;;;;;;;0.30;0.30;;;17.50;45.50;19.60;94247.00;;;;10435340;28;45374;-62
2022/05/06 02:27:51;;;;;;;0.25;0.20;;;17.50;45.50;19.60;94231.00;;;;10435609;28;45232;-63
2022/05/06 02:33:15;;;;;;;0.60;0.40;;;17.50;45.50;19.60;94236.00;;;;10434677;28;45155;-63
2022/05/06 02:38:36;;;;;;;0.30;0.30;;;17.40;45.60;19.60;94245.00;;;;10435338;28;45140;-63
2022/05/06 02:43:57;;;;;;;0.90;0.38;;;17.50;45.50;19.60;94240.00;;;;10435686;28;45218;-63
2022/05/06 02:49:18;;;;;;;1.10;0.40;;;17.40;45.50;19.60;94237.00;;;;10435016;28;45765;-63
2022/05/06 02:54:38;;;;;;;0.60;0.30;;;17.50;45.60;19.60;94230.00;;;;10435205;28;45176;-62
2022/05/06 03:00:01;;;;;;;0.82;0.35;;;17.40;45.50;19.60;94238.00;;;;10434522;28;45150;-63
2022/05/06 03:05:21;;;;;;;0.60;0.40;;;17.40;45.50;19.60;94228.00;;;;10434733;28;45252;-63
2022/05/06 03:10:41;;;;;;;0.43;0.30;;;17.40;45.60;19.60;94227.00;;;;10434221;28;45192;-62
2022/05/06 03:16:04;;;;;;;0.40;0.40;;;17.40;45.60;19.60;94215.00;;;;10434445;28;45151;-63
2022/05/06 03:21:25;;;;;;;0.57;0.40;;;17.40;45.60;19.60;94230.00;;;;10434487;28;45231;-63
2022/05/06 03:26:46;;;;;;;1.15;0.35;;;17.40;45.60;19.60;94238.00;;;;10434107;28;45180;-63
2022/05/06 03:32:08;;;;;;;0.40;0.30;;;17.40;45.60;19.50;94225.00;;;;10433132;28;45886;-62
2022/05/06 03:37:29;;;;;;;0.15;0.15;;;17.40;45.60;19.50;94225.00;;;;10438610;28;45763;-62
2022/05/06 03:42:49;;;;;;;0.60;0.30;;;17.40;45.60;19.50;94236.00;;;;10440907;28;45272;-63
2022/05/06 03:48:11;;;;;;;0.40;0.30;;;17.40;45.60;19.50;94232.00;;;;10440601;28;45171;-62
2022/05/06 03:53:32;;;;;;;0.90;0.30;;;17.40;45.60;19.50;94231.00;;;;10440311;28;45145;-63
2022/05/06 03:58:53;;;;;;;0.22;0.20;;;17.40;45.60;19.50;94250.00;;;;10439716;28;45198;-63
2022/05/06 04:04:15;;;;;;;0.30;0.20;;;17.30;45.60;19.50;94250.00;;;;10440243;28;45112;-63
2022/05/06 04:09:35;;;;;;;0.20;0.20;;;17.40;45.60;19.60;94240.00;;;;10439842;28;45160;-62
2022/05/06 04:14:56;;;;;;;0.70;0.30;;;17.40;45.60;19.60;94248.00;;;;10440030;28;45259;-62
2022/05/06 04:25:57;;;;;;;0.32;0.30;;;17.60;45.30;19.70;94235.00;;;;10439390;28;45105;-62
2022/05/06 04:31:18;;;;;;;0.50;0.30;;;17.60;45.20;19.80;94237.00;;;;10438973;28;45122;-63
2022/05/06 04:36:40;;;;;;;0.30;0.30;;;17.70;45.20;19.80;94255.00;;;;10439080;28;45109;-63
2022/05/06 04:42:02;;;;;;;0.73;0.38;;;17.70;45.10;19.80;94260.00;;;;10438846;28;45767;-62
2022/05/06 04:47:22;;;;;;;0.55;0.40;;;17.80;45.10;19.90;94247.00;;;;10438095;28;45343;-63
2022/05/06 04:52:44;;;;;;;0.38;0.30;;;17.80;45.00;19.90;94261.00;;;;10438541;28;45230;-62
2022/05/06 04:58:06;;;;;;;0.32;0.32;;;17.80;45.00;19.90;94261.00;;;;10438568;28;45193;-63
2022/05/06 05:03:28;;;;;;;0.40;0.40;;;17.90;45.00;19.90;94254.00;;;;10437647;28;45763;-63
2022/05/06 05:08:50;;;;;;;0.38;0.38;;;17.90;45.00;20.00;94254.00;;;;10438222;28;45415;-62
2022/05/06 05:14:11;;;;;;;0.80;0.50;;;17.90;44.90;20.00;94251.00;;;;10438688;28;45223;-63
2022/05/06 05:19:31;;;;;;;0.40;0.32;;;17.90;44.90;20.00;94260.00;;;;10438452;28;45183;-62
2022/05/06 05:24:53;;;;;;;0.88;0.50;;;18.00;44.90;20.00;94251.00;;;;10438223;28;45269;-63
2022/05/06 05:30:14;;;;;;;0.35;0.35;;;18.00;44.80;20.10;94243.00;;;;10437807;28;45187;-62
2022/05/06 05:35:36;;;;;;;0.75;0.50;;;18.00;44.80;20.10;94253.00;;;;10438414;28;45236;-62
2022/05/06 05:40:58;;;;;;;0.30;0.30;;;18.00;44.80;20.10;94251.00;;;;10438092;28;45866;-63
2022/05/06 05:51:58;;;;;;;0.40;0.40;;;18.00;44.70;20.10;94248.00;;;;10437253;28;45129;-63
2022/05/06 05:57:20;;;;;;;0.40;0.40;;;18.10;44.70;20.10;94246.00;;;;10436452;28;45140;-62
2022/05/06 06:02:40;;;;;;;0.60;0.40;;;18.10;44.70;20.20;94254.00;;;;10436477;28;45317;-63
2022/05/06 06:08:01;;;;;;;1.10;0.60;;;18.10;44.70;20.20;94265.00;;;;10436427;28;45827;-64
2022/05/06 06:13:23;;;;;;;1.33;0.60;;;18.10;44.60;20.20;94262.00;;;;10436414;28;45185;-63
2022/05/06 06:18:43;;;;;;;1.02;0.50;;;18.10;44.80;20.20;94263.00;;;;10436012;28;45241;-63
2022/05/06 06:24:06;;;;;;;0.57;0.57;;;18.10;44.70;20.20;94257.00;;;;10436718;28;46558;-62
2022/05/06 06:29:29;;;;;;;0.93;0.60;;;18.10;44.70;20.20;94267.00;;;;10435995;28;45423;-66
2022/05/06 06:34:51;;;;;;;0.52;0.50;;;18.20;44.80;20.30;94255.00;;;;10400393;28;45177;-63
2022/05/06 06:40:12;;;;;;;0.57;0.47;;;18.20;44.80;20.30;94269.00;;;;10404779;28;45777;-64
2022/05/06 06:45:35;;;;;;;0.60;0.50;;;18.20;43.80;20.30;94274.00;;;;10435244;28;45426;-66
2022/05/06 06:50:56;;;;;;;1.52;0.40;;;18.20;44.00;20.40;94277.00;;;;10435904;28;45143;-61
2022/05/06 06:56:16;;;;;;;1.50;0.75;;;18.30;44.50;20.40;94270.00;;;;10435468;28;46195;-63
2022/05/06 07:01:38;;;;;;;2.00;1.00;;;18.30;44.70;20.40;94278.00;;;;10433189;28;45540;-64
2022/05/06 07:12:37;;;;;;;1.25;0.80;;;18.30;45.00;20.40;94279.00;;;;10440516;28;45116;-62
2022/05/06 07:17:59;;;;;;;4.38;1.10;;;18.30;45.20;20.40;94282.00;;;;10442559;28;45862;-62
2022/05/06 07:23:20;;;;;;;2.15;1.00;;;18.30;45.70;20.40;94286.00;;;;10441462;28;45950;-62
2022/05/06 07:28:41;;;;;;;2.88;1.05;;;18.40;45.70;20.50;94270.00;;;;10441183;28;45518;-62
2022/05/06 07:34:03;;;;;;;3.53;1.00;;;18.40;46.40;20.50;94285.00;;;;10441611;28;45315;-62
2022/05/06 07:39:24;;;;;;;3.10;1.17;;;18.40;45.60;20.50;94291.00;;;;10441043;28;45767;-62
2022/05/06 07:44:44;;;;;;;2.53;0.93;;;18.40;45.50;20.50;94286.00;;;;10440987;28;45214;-61
2022/05/06 07:50:07;;;;;;;1.10;0.80;;;18.40;45.30;20.50;94289.00;;;;10440651;28;45188;-61
2022/05/06 07:55:29;;;;;;;1.95;0.93;;;18.40;45.30;20.50;94290.00;;;;10438593;28;45210;-60
2022/05/06 08:00:50;;;;;;;2.42;0.70;;;18.40;45.20;20.50;94294.00;;;;10440379;28;45810;-62
2022/05/06 08:06:13;;;;;;;2.75;0.90;;;18.40;45.20;20.50;94293.00;;;;10439951;28;45882;-62
2022/05/06 08:11:36;;;;;;;1.95;0.77;;;18.40;45.10;20.50;94292.00;;;;10440047;28;45185;-62
2022/05/06 08:16:57;;;;;;;1.70;0.80;;;18.40;45.00;20.50;94288.00;;;;10438883;28;45867;-62
2022/05/06 08:22:20;;;;;;;0.98;0.60;;;18.40;45.00;20.50;94294.00;;;;10437368;28;45369;-62
2022/05/06 08:27:43;;;;;;;2.17;0.70;;;18.40;45.00;20.50;94285.00;;;;10439778;28;45161;-62
2022/05/06 08:33:04;;;;;;;1.63;0.82;;;18.40;44.90;20.50;94299.00;;;;10439170;28;45664;-62
2022/05/06 08:38:26;;;;;;;1.42;0.82;;;18.40;44.90;20.50;94295.00;;;;10439456;28;45216;-62
2022/05/06 08:43:46;;;;;;;1.67;1.00;;;18.40;44.90;20.60;94301.00;;;;10437921;28;45887;-62
2022/05/06 08:54:48;;;;;;;1.85;0.77;;;18.40;44.80;20.60;94326.00;;;;10439270;28;45248;-62
2022/05/06 09:00:11;;;;;;;1.48;0.80;;;18.50;45.00;20.60;94321.00;;;;10438828;28;45205;-62
2022/05/06 09:05:32;;;;;;;1.02;0.65;;;18.50;45.20;20.60;94332.00;;;;10436704;28;45751;-62
2022/05/06 09:11:04;;;;;;;1.00;0.90;;;18.50;44.80;20.60;94321.00;;;;10419060;28;45242;-63
2022/05/06 09:16:42;;;;;;;1.00;0.88;;;18.50;44.90;20.70;94339.00;;;;10480279;28;45765;-62
2022/05/06 09:22:06;;;;;;;1.05;0.90;;;18.50;44.90;20.70;94342.00;;;;10472599;28;45185;-62
2022/05/06 09:27:28;;;;;;;1.45;0.85;;;18.50;44.90;20.70;94339.00;;;;10470149;28;45689;-62
2022/05/06 09:32:48;;;;;;;0.98;0.77;;;18.60;44.80;20.70;94347.00;;;;10478461;28;45354;-62
2022/05/06 09:38:17;;;;;;;1.20;0.82;;;18.50;44.80;20.70;94331.00;;;;10440675;28;45747;-63
2022/05/06 09:43:58;;;;;;;1.92;0.88;;;18.60;44.80;20.60;94337.00;;;;10437964;28;45184;-64
2022/05/06 09:49:19;;;;;;;1.98;1.10;;;18.50;45.00;20.60;94351.00;;;;10437528;28;45160;-64
2022/05/06 09:54:44;;;;;;;1.58;1.00;;;18.50;45.10;20.60;94351.00;;;;10437411;28;45199;-62
2022/05/06 10:00:08;;;;;;;2.10;1.10;;;18.50;45.00;20.60;94354.00;;;;10437210;28;45167;-62
2022/05/06 10:05:30;;;;;;;1.90;1.40;;;18.50;44.90;20.60;94335.00;;;;10436873;28;45701;-62
2022/05/06 10:10:59;;;;;;;1.92;1.25;;;18.50;45.40;20.60;94347.00;;;;10436581;28;45398;-64
2022/05/06 10:16:34;;;;;;;2.03;1.25;;;18.50;45.30;20.60;94356.00;;;;10436905;28;45932;-62
2022/05/06 10:21:56;;;;;;;1.83;1.30;;;18.50;45.30;20.70;94359.00;;;;10436512;28;45109;-62
2022/05/06 10:32:25;;;;;;;1.42;1.13;;;18.50;45.20;20.70;94355.00;;;;10436569;28;45102;-62
2022/05/06 10:33:07;;;;;;;1.75;1.20;;;18.50;45.20;20.70;94352.00;;;;10435812;28;45248;-62
2022/05/06 10:38:28;;;;;;;2.03;1.20;;;18.50;45.20;20.70;94360.00;;;;10436429;28;45236;-62
2022/05/06 10:43:53;;;;;;;1.85;1.30;;;18.50;45.20;20.70;94356.00;;;;10437234;28;45887;-62
2022/05/06 10:49:50;;;;;;;2.88;1.10;;;18.50;45.30;20.70;94372.00;;;;10443156;28;45690;-62
2022/05/06 10:55:16;;;;;;;3.15;1.23;;;18.50;45.20;20.70;94367.00;;;;10443082;28;45213;-62
2022/05/06 11:00:40;;;;;;;2.13;1.40;;;18.50;45.30;20.70;94359.00;;;;10427744;28;45756;-62
2022/05/06 11:06:01;;;;;;;4.90;1.30;;;18.50;45.30;20.70;94354.00;;;;10443512;28;45792;-63
2022/05/06 11:11:22;;;;;;;1.25;1.00;;;18.50;45.20;20.70;94355.00;;;;10443549;28;45182;-62
2022/05/06 11:16:42;;;;;;;1.77;1.10;;;18.50;45.20;20.60;94348.00;;;;10442734;28;45211;-63
2022/05/06 11:22:09;;;;;;;2.15;1.30;;;18.50;45.10;20.70;94348.00;;;;10445487;28;45165;-63
2022/05/06 11:27:30;;;;;;;1.90;1.10;;;18.60;45.00;20.80;94334.00;;;;10447580;28;45104;-63
2022/05/06 11:32:53;;;;;;;1.60;1.00;;;18.70;44.70;20.90;94352.00;;;;10453867;22;45636;-63
2022/05/06 11:38:15;;;;;;;0.90;0.80;;;18.70;44.40;20.90;94345.00;;;;10448936;28;45107;-63
2022/05/06 11:43:37;;;;;;;1.48;1.00;;;18.80;44.30;20.90;94350.00;;;;10412868;28;45754;-63
2022/05/06 11:48:58;;;;;;;1.40;0.85;;;18.80;44.10;20.90;94333.00;;;;10407351;28;45213;-63
2022/05/06 11:54:20;;;;;;;1.20;0.82;;;18.80;44.00;21.00;94343.00;;;;10404393;28;45148;-63
2022/05/06 11:59:41;;;;;;;2.15;1.08;;;18.80;43.80;21.00;94340.00;;;;10403573;28;45857;-63
2022/05/06 12:05:02;;;;;;;1.45;1.00;;;18.90;43.80;21.00;94343.00;;;;10404972;28;45428;-64
2022/05/06 12:10:29;;;;;;;0.80;0.80;;;18.90;43.80;21.00;94330.00;;;;10405117;28;45163;-62
2022/05/06 12:15:51;;;;;;;1.50;0.80;;;18.80;44.30;21.00;94347.00;;;;10406507;28;45246;-63
2022/05/06 12:21:19;;;;;;;1.27;0.88;;;18.90;43.60;21.00;94333.00;;;;10402908;28;45365;-63
2022/05/06 12:26:41;;;;;;;1.00;0.90;;;18.90;43.60;21.00;94345.00;;;;10381376;28;46116;-64
2022/05/06 12:32:03;;;;;;;1.40;1.00;;;18.90;43.50;21.00;94346.00;;;;10363793;28;45758;-63
2022/05/06 12:37:24;;;;;;;0.88;0.75;;;18.90;43.40;21.00;94336.00;;;;10401432;28;45331;-63
2022/05/06 12:42:45;;;;;;;0.90;0.80;;;18.90;43.30;21.00;94354.00;;;;10405675;28;45797;-63
2022/05/06 12:53:45;;;;;;;1.17;0.90;;;18.90;43.30;21.00;94351.00;;;;10407900;28;45260;-64
2022/05/06 12:59:08;;;;;;;1.40;1.10;;;18.90;43.30;21.10;94355.00;;;;10420305;28;45202;-62
2022/05/06 13:04:29;;;;;;;1.40;0.82;;;18.90;43.20;21.10;94354.00;;;;10408582;28;45259;-62
2022/05/06 13:09:50;;;;;;;0.93;0.80;;;18.90;43.30;21.10;94347.00;;;;10355404;28;45419;-64
2022/05/06 13:15:12;;;;;;;1.17;0.90;;;18.90;43.20;21.10;94348.00;;;;10361608;28;45972;-63
2022/05/06 13:20:32;;;;;;;0.80;0.80;;;18.90;43.10;21.10;94355.00;;;;10416521;28;45154;-63
2022/05/06 13:25:53;;;;;;;0.85;0.77;;;18.90;43.10;21.10;94346.00;;;;10440090;28;45685;-63
2022/05/06 13:31:14;;;;;;;1.77;1.40;;;18.90;43.10;21.00;94347.00;;;;10393870;28;45121;-62
2022/05/06 13:36:35;;;;;;;2.40;1.25;;;18.90;44.60;21.00;94351.00;;;;10394538;28;45216;-60
2022/05/06 13:41:56;;;;;;;1.70;1.20;;;18.90;44.80;21.00;94354.00;;;;10384194;28;45188;-61
2022/05/06 13:47:18;;;;;;;1.70;1.38;;;18.90;44.80;21.00;94351.00;;;;10394243;28;45199;-61
2022/05/06 13:52:39;;;;;;;2.88;1.33;;;18.90;44.80;21.00;94339.00;;;;10394974;28;45689;-60
2022/05/06 14:03:39;;;;;;;2.15;1.27;;;18.80;44.80;21.00;94350.00;;;;10394367;28;45197;-60
2022/05/06 14:09:02;;;;;;;2.13;1.25;;;18.90;44.80;21.00;94332.00;;;;10394414;28;45163;-61
2022/05/06 14:14:23;;;;;;;2.00;1.20;;;18.80;44.70;21.00;94336.00;;;;10394433;28;45111;-61
2022/05/06 14:19:45;;;;;;;23.58;3.90;;;18.80;44.70;21.00;94327.00;;;;10393089;28;45212;-61
2022/05/06 14:25:06;;;;;;;30.02;4.18;;;18.90;44.90;21.00;94322.00;;;;10394695;28;45170;-62
2022/05/06 14:30:27;;;;;;;23.20;3.97;;;18.80;44.80;21.00;94325.00;;;;10393191;28;45268;-61
2022/05/06 14:35:49;;;;;;;30.02;3.95;;;18.80;44.80;21.00;94336.00;;;;10394119;28;45252;-60
2022/05/06 14:41:10;;;;;;;23.00;4.20;;;18.90;44.70;20.90;94338.00;;;;10394056;28;45666;-60
2022/05/06 14:46:30;;;;;;;17.33;4.07;;;18.80;44.80;20.90;94344.00;;;;10393999;28;45894;-62
2022/05/06 14:51:52;;;;;;;8.63;2.70;;;18.80;45.20;20.90;94327.00;;;;10353104;28;45737;-61
2022/05/06 14:57:13;;;;;;;8.27;2.70;;;18.80;45.50;20.90;94338.00;;;;10393100;28;45142;-61
2022/05/06 15:02:34;;;;;;;11.20;2.72;;;18.80;45.60;20.90;94344.00;;;;10393628;28;45165;-61
2022/05/06 15:07:56;;;;;;;5.13;2.47;;;18.80;45.90;20.90;94353.00;;;;10392918;28;45158;-61
2022/05/06 15:13:16;;;;;;;6.05;2.50;;;18.80;46.30;20.90;94343.00;;;;10392498;28;45171;-61
2022/05/06 15:24:28;;;;;;;5.15;2.53;;;18.80;46.50;20.90;94328.00;;;;10363994;28;45066;-60
2022/05/06 15:29:49;;;;;;;4.82;2.42;;;18.80;46.60;20.90;94322.00;;;;10376460;28;45363;-61
2022/05/06 15:35:10;;;;;;;5.93;2.53;;;18.80;46.70;20.90;94338.00;;;;10359416;28;45214;-61
2022/05/06 15:40:31;;;;;;;3.78;2.10;;;18.80;46.80;20.90;94347.00;;;;10359379;28;45262;-61
2022/05/06 15:45:52;;;;;;;5.05;2.55;;;18.80;46.80;21.00;94341.00;;;;10358623;28;45258;-61
2022/05/06 15:51:13;;;;;;;5.55;2.35;;;18.90;46.80;21.00;94325.00;;;;10358908;28;45260;-61
2022/05/06 15:56:36;;;;;;;3.85;2.05;;;18.80;46.80;21.00;94329.00;;;;10358381;28;45194;-61
2022/05/06 16:01:57;;;;;;;5.38;1.90;;;18.80;46.70;20.90;94324.00;;;;10386279;28;45179;-62
2022/05/06 16:07:17;;;;;;;4.30;1.80;;;18.80;46.80;20.90;94333.00;;;;10396305;28;45781;-60
2022/05/06 16:12:41;;;;;;;4.15;1.88;;;18.80;46.80;20.90;94342.00;;;;10387386;28;45699;-60
2022/05/06 16:18:02;;;;;;;2.85;1.75;;;18.80;47.10;21.00;94347.00;;;;10358962;28;45486;-61
2022/05/06 16:23:23;;;;;;;3.10;1.83;;;18.80;47.10;21.00;94352.00;;;;10394533;28;45726;-61
2022/05/06 16:28:45;;;;;;;2.70;1.70;;;18.80;47.00;21.00;94340.00;;;;10398409;28;45114;-60
2022/05/06 16:39:44;;;;;;;2.70;1.77;;;18.80;47.20;21.00;94364.00;;;;10397748;28;45679;-62
2022/05/06 16:45:06;;;;;;;2.72;1.92;;;18.80;47.10;21.00;94358.00;;;;10397304;28;45099;-62
2022/05/06 16:50:28;;;;;;;2.72;1.63;;;18.80;47.20;21.00;94355.00;;;;10397438;28;45160;-61
2022/05/06 16:55:48;;;;;;;2.25;1.70;;;18.80;47.00;21.00;94355.00;;;;10396878;28;45844;-61
2022/05/06 17:01:10;;;;;;;2.47;1.80;;;18.80;47.00;20.90;94347.00;;;;10392572;28;45865;-60
2022/05/06 17:06:31;;;;;;;5.35;2.00;;;18.80;47.10;20.90;94360.00;;;;10394307;28;45781;-61
2022/05/06 17:11:52;;;;;;;2.90;1.98;;;18.80;47.10;21.00;94350.00;;;;10395962;28;45188;-61
2022/05/06 17:17:14;;;;;;;3.40;1.92;;;18.80;47.00;21.00;94361.00;;;;10395864;28;45205;-61
2022/05/06 17:22:35;;;;;;;3.05;1.83;;;18.90;47.20;20.90;94355.00;;;;10386044;28;45713;-61
2022/05/06 17:27:56;;;;;;;3.08;1.50;;;18.80;47.10;21.00;94355.00;;;;10377147;28;45116;-61
2022/05/06 17:33:17;;;;;;;2.50;1.70;;;18.90;47.20;21.00;94361.00;;;;10361171;28;45566;-61
2022/05/06 17:38:38;;;;;;;4.03;1.90;;;18.80;47.20;21.00;94352.00;;;;10395290;28;45915;-62
2022/05/06 17:43:59;;;;;;;2.17;1.63;;;18.70;47.10;21.00;94357.00;;;;10395635;28;45311;-62
2022/05/06 17:49:21;;;;;;;2.13;1.60;;;18.90;47.30;21.00;94367.00;;;;10395470;28;45189;-62
2022/05/06 17:54:43;;;;;;;3.58;2.05;;;18.90;47.10;21.00;94371.00;;;;10394101;28;45137;-62
2022/05/06 18:05:45;;;;;;;2.40;1.77;;;18.80;47.00;20.90;94372.00;;;;10394714;28;45214;-61
2022/05/06 18:11:06;;;;;;;3.83;1.88;;;18.80;47.00;20.90;94380.00;;;;10395164;28;45222;-62
2022/05/06 18:16:28;;;;;;;2.97;2.10;;;18.80;47.10;20.90;94364.00;;;;10395079;28;45165;-62
2022/05/06 18:21:50;;;;;;;2.63;1.83;;;18.80;47.00;20.90;94366.00;;;;10394784;28;45212;-63
2022/05/06 18:27:11;;;;;;;3.28;1.65;;;18.80;46.90;20.90;94390.00;;;;10394414;28;45669;-62
2022/05/06 18:38:13;;;;;;;2.28;1.50;;;18.80;46.80;20.90;94387.00;;;;10394152;28;45386;-63
2022/05/06 18:43:33;;;;;;;2.03;1.50;;;18.70;46.60;20.90;94380.00;;;;10394255;28;45171;-62
2022/05/06 18:48:53;;;;;;;2.92;1.65;;;18.70;46.50;20.80;94393.00;;;;10394339;28;45107;-63
2022/05/06 18:54:15;;;;;;;2.65;1.63;;;18.70;46.50;20.90;94400.00;;;;10393611;28;45165;-62
2022/05/06 18:59:35;;;;;;;2.53;1.60;;;18.70;46.30;20.80;94391.00;;;;10393731;28;45702;-62
2022/05/06 19:04:56;;;;;;;3.42;1.70;;;18.70;46.20;20.80;94392.00;;;;10394768;28;45855;-62
2022/05/06 19:10:17;;;;;;;2.33;1.40;;;18.70;46.20;20.80;94426.00;;;;10400781;28;45098;-62
2022/05/06 19:15:38;;;;;;;2.30;1.60;;;18.70;46.10;20.80;94423.00;;;;10400342;28;45883;-62
2022/05/06 19:24:43;;;;;;;2.53;1.42;;;18.70;46.00;20.90;94408.00;;;;10400725;28;45154;-62
2022/05/06 19:26:41;;;;;;;1.83;1.30;;;18.70;45.90;21.00;94417.00;;;;10399853;28;45243;-62
2022/05/06 19:32:02;;;;;;;1.20;1.10;;;18.80;45.70;21.00;94418.00;;;;10399973;28;45769;-62
2022/05/06 19:37:25;;;;;;;1.70;1.35;;;18.80;45.50;21.00;94411.00;;;;10399543;28;45678;-62
2022/05/06 19:42:46;;;;;;;1.80;1.30;;;18.80;45.40;21.00;94421.00;;;;10399737;28;45141;-62
2022/05/06 19:48:07;;;;;;;3.05;1.60;;;18.90;45.30;21.00;94420.00;;;;10399657;28;45201;-62
2022/05/06 19:53:28;;;;;;;2.05;1.30;;;18.90;45.20;21.00;94425.00;;;;10400949;28;45786;-62
2022/05/06 19:58:50;;;;;;;1.73;1.23;;;18.90;45.10;21.00;94440.00;;;;10399058;28;45246;-62
2022/05/06 20:04:11;;;;;;;2.28;1.40;;;18.90;45.00;21.00;94447.00;;;;10412305;28;45694;-62
2022/05/06 20:09:31;;;;;;;1.67;1.48;;;18.90;44.90;21.00;94444.00;;;;10396766;28;45321;-61
2022/05/06 20:14:55;;;;;;;1.70;1.10;;;18.90;44.90;21.00;94442.00;;;;10398955;28;45219;-62
2022/05/06 20:20:16;;;;;;;2.25;1.40;;;18.90;44.90;21.00;94455.00;;;;10397873;28;46139;-64
2022/05/06 20:25:36;;;;;;;2.65;1.20;;;18.90;44.90;21.00;94456.00;;;;10398405;28;45217;-63
2022/05/06 20:30:58;;;;;;;1.63;1.30;;;18.90;44.80;20.90;94447.00;;;;10398510;28;45265;-62
2022/05/06 20:36:19;;;;;;;1.40;1.30;;;18.80;44.80;20.90;94442.00;;;;10398364;28;45771;-62
2022/05/06 20:41:41;;;;;;;2.35;1.40;;;18.80;44.80;20.90;94450.00;;;;10397990;28;45218;-62
2022/05/06 20:47:03;;;;;;;1.50;1.20;;;18.80;44.80;20.80;94432.00;;;;10397736;28;45153;-64
2022/05/06 20:52:25;;;;;;;1.60;1.23;;;18.70;44.80;20.80;94446.00;;;;10398026;28;45897;-61
2022/05/06 21:03:25;;;;;;;2.38;1.27;;;18.60;44.90;20.70;94441.00;;;;10397700;28;45213;-61
2022/05/06 21:14:25;;;;;;;1.40;1.20;;;18.60;45.00;20.70;94429.00;;;;10396994;28;45786;-62
2022/05/06 21:19:46;;;;;;;1.92;1.25;;;18.50;45.00;20.60;94434.00;;;;10396938;28;45328;-62
2022/05/06 21:25:09;;;;;;;2.03;1.10;;;18.50;45.00;20.50;94428.00;;;;10397011;28;45270;-64
2022/05/06 21:30:30;;;;;;;1.63;1.20;;;18.40;45.00;20.60;94419.00;;;;10395820;28;45244;-62
2022/05/06 21:35:52;;;;;;;1.85;1.20;;;18.40;45.20;20.60;94436.00;;;;10397060;28;45850;-63
2022/05/06 21:41:13;;;;;;;1.88;1.30;;;18.40;45.10;20.50;94434.00;;;;10396758;28;45765;-61
2022/05/06 21:46:34;;;;;;;1.55;1.10;;;18.30;45.10;20.50;94443.00;;;;10396453;28;45798;-64
2022/05/06 21:51:55;;;;;;;1.42;1.20;;;18.30;45.10;20.50;94428.00;;;;10396651;28;45293;-62
2022/05/06 21:57:16;;;;;;;1.95;1.20;;;18.30;45.20;20.50;94427.00;;;;10396284;28;45845;-62
2022/05/06 22:02:37;;;;;;;1.60;1.35;;;18.20;45.10;20.40;94418.00;;;;10396302;28;45239;-63
2022/05/06 22:07:59;;;;;;;1.20;1.08;;;18.30;45.20;20.40;94425.00;;;;10395617;28;45129;-64
2022/05/06 22:13:20;;;;;;;1.63;1.20;;;18.20;45.20;20.40;94413.00;;;;10396241;28;45706;-62
2022/05/06 22:18:41;;;;;;;2.08;1.20;;;18.10;45.20;20.30;94425.00;;;;10395418;28;45797;-62
2022/05/06 22:24:04;;;;;;;1.77;1.13;;;18.10;45.20;20.30;94417.00;;;;10395581;28;45770;-62
2022/05/06 22:29:24;;;;;;;1.20;1.10;;;18.10;45.30;20.30;94410.00;;;;10395432;28;45714;-62
2022/05/06 22:34:45;;;;;;;1.83;1.30;;;18.10;45.30;20.30;94413.00;;;;10396209;28;45699;-64
2022/05/06 22:40:09;;;;;;;1.40;1.10;;;18.10;45.30;20.30;94400.00;;;;10394168;28;45865;-64
2022/05/06 22:51:09;;;;;;;1.20;1.02;;;18.00;45.30;20.20;94405.00;;;;10394275;28;45770;-62
2022/05/06 22:56:31;;;;;;;1.42;1.13;;;18.00;45.40;20.20;94402.00;;;;10394103;28;45205;-62
2022/05/06 23:01:51;;;;;;;2.67;1.30;;;18.00;45.40;20.20;94384.00;;;;10393776;28;45880;-62
2022/05/06 23:07:12;;;;;;;1.70;0.98;;;18.00;45.40;20.20;94401.00;;;;10396229;28;45150;-64
2022/05/06 23:12:33;;;;;;;1.45;1.10;;;18.00;45.40;20.20;94398.00;;;;10394994;28;45181;-62
2022/05/06 23:17:54;;;;;;;1.75;1.10;;;17.90;45.30;20.10;94395.00;;;;10393663;28;45654;-62
2022/05/06 23:23:14;;;;;;;1.10;1.00;;;17.90;45.40;20.10;94381.00;;;;10395316;28;45060;-64
2022/05/06 23:28:36;;;;;;;1.45;1.10;;;17.90;45.40;20.10;94388.00;;;;10394580;28;45183;-61
2022/05/06 23:33:57;;;;;;;1.83;1.20;;;17.90;45.40;20.10;94384.00;;;;10479900;22;45198;-66
2022/05/06 23:39:17;;;;;;;1.17;0.95;;;17.90;45.40;20.10;94386.00;;;;10477008;28;45459;-66
2022/05/06 23:44:39;;;;;;;1.13;0.80;;;17.90;45.40;20.00;94376.00;;;;10476984;28;45244;-67
2022/05/06 23:50:00;;;;;;;1.33;1.20;;;17.80;45.40;20.00;94361.00;;;;10476554;28;45288;-66
2022/05/06 23:55:21;;;;;;;1.52;1.10;;;17.80;45.40;20.00;94374.00;;;;10482214;28;45290;-67
